createdAt,value
2018-06-10T00:00:52.864Z,0
2018-06-10T00:02:01.756Z,0
2018-06-10T00:03:10.643Z,0
2018-06-10T00:04:19.272Z,0
2018-06-10T00:05:27.896Z,0
2018-06-10T00:06:36.784Z,0
2018-06-10T00:07:45.408Z,0
2018-06-10T00:08:54.293Z,0
2018-06-10T00:10:02.918Z,0
2018-06-10T00:11:11.544Z,0
2018-06-10T00:12:20.427Z,0
2018-06-10T00:13:29.054Z,0
2018-06-10T00:14:37.680Z,0
2018-06-10T00:15:46.304Z,0
2018-06-10T00:16:54.931Z,0
2018-06-10T00:18:03.559Z,0
2018-06-10T00:19:12.187Z,0
2018-06-10T00:20:20.813Z,0
2018-06-10T00:21:29.439Z,0
2018-06-10T00:22:38.327Z,0
2018-06-10T00:23:46.952Z,0
2018-06-10T00:24:55.576Z,0
2018-06-10T00:26:04.206Z,0
2018-06-10T00:27:12.830Z,0
2018-06-10T00:28:21.454Z,0
2018-06-10T00:29:30.083Z,0
2018-06-10T00:30:38.965Z,0
2018-06-10T00:31:47.597Z,0
2018-06-10T00:32:56.216Z,0
2018-06-10T00:34:04.844Z,0
2018-06-10T00:35:13.469Z,0
2018-06-10T00:36:22.095Z,0
2018-06-10T00:37:30.989Z,0
2018-06-10T00:38:39.613Z,0
2018-06-10T00:39:48.239Z,0
2018-06-10T00:40:57.127Z,0
2018-06-10T00:42:05.751Z,0
2018-06-10T00:43:14.375Z,0
2018-06-10T00:44:22.999Z,0
2018-06-10T00:45:31.634Z,0
2018-06-10T00:46:40.525Z,0
2018-06-10T00:47:49.150Z,0
2018-06-10T00:48:57.778Z,0
2018-06-10T00:50:06.677Z,0
2018-06-10T00:51:15.568Z,0
2018-06-10T00:52:24.454Z,0
2018-06-10T00:53:33.081Z,0
2018-06-10T00:54:41.706Z,0
2018-06-10T00:55:50.329Z,0
2018-06-10T00:56:58.954Z,0
2018-06-10T00:58:07.577Z,0
2018-06-10T00:59:16.203Z,0
2018-06-10T01:00:25.104Z,0
2018-06-10T01:01:33.732Z,0
2018-06-10T01:02:42.357Z,0
2018-06-10T01:03:50.981Z,0
2018-06-10T01:04:59.608Z,0
2018-06-10T01:06:08.232Z,0
2018-06-10T01:07:17.118Z,0
2018-06-10T01:08:25.744Z,0
2018-06-10T01:09:34.370Z,0
2018-06-10T01:10:42.998Z,0
2018-06-10T01:11:51.623Z,0
2018-06-10T01:13:00.250Z,0
2018-06-10T01:14:08.877Z,0
2018-06-10T01:15:17.501Z,0
2018-06-10T01:16:26.128Z,0
2018-06-10T01:17:34.752Z,0
2018-06-10T01:18:43.376Z,0
2018-06-10T01:19:52.001Z,0
2018-06-10T01:21:01.155Z,0
2018-06-10T01:22:10.049Z,0
2018-06-10T01:23:18.932Z,0
2018-06-10T01:24:27.557Z,0
2018-06-10T01:25:36.183Z,0
2018-06-10T01:26:44.812Z,0
2018-06-10T01:27:53.437Z,0
2018-06-10T01:29:02.329Z,0
2018-06-10T01:30:10.955Z,0
2018-06-10T01:31:19.580Z,0
2018-06-10T01:32:28.205Z,0
2018-06-10T01:33:36.837Z,0
2018-06-10T01:34:45.464Z,0
2018-06-10T01:35:54.090Z,0
2018-06-10T01:37:02.716Z,0
2018-06-10T01:38:11.345Z,0
2018-06-10T01:39:19.975Z,0
2018-06-10T01:40:31.637Z,0
2018-06-10T01:41:40.261Z,0
2018-06-10T01:42:49.150Z,0
2018-06-10T01:43:57.803Z,0
2018-06-10T01:45:06.447Z,0
2018-06-10T01:46:15.103Z,0
2018-06-10T01:47:23.739Z,0
2018-06-10T01:48:32.396Z,0
2018-06-10T01:49:41.039Z,0
2018-06-10T01:50:49.674Z,0
2018-06-10T01:51:58.304Z,0
2018-06-10T01:53:06.960Z,0
2018-06-10T01:54:15.606Z,0
2018-06-10T01:55:24.252Z,0
2018-06-10T01:56:32.895Z,0
2018-06-10T01:57:41.823Z,0
2018-06-10T01:58:50.463Z,0
2018-06-10T01:59:59.373Z,0
2018-06-10T02:01:08.022Z,0
2018-06-10T02:02:16.665Z,0
2018-06-10T02:03:25.312Z,0
2018-06-10T02:04:34.228Z,0
2018-06-10T02:05:42.882Z,0
2018-06-10T02:06:51.528Z,0
2018-06-10T02:08:00.176Z,0
2018-06-10T02:09:08.823Z,0
2018-06-10T02:10:18.004Z,0
2018-06-10T02:11:26.915Z,0
2018-06-10T02:12:35.558Z,0
2018-06-10T02:13:44.208Z,0
2018-06-10T02:14:52.862Z,0
2018-06-10T02:16:01.774Z,0
2018-06-10T02:17:10.682Z,0
2018-06-10T02:18:19.328Z,0
2018-06-10T02:19:28.237Z,0
2018-06-10T02:20:36.894Z,0
2018-06-10T02:21:45.541Z,0
2018-06-10T02:22:54.190Z,0
2018-06-10T02:24:02.833Z,0
2018-06-10T02:25:11.496Z,0
2018-06-10T02:26:20.401Z,0
2018-06-10T02:27:29.049Z,0
2018-06-10T02:28:37.691Z,0
2018-06-10T02:29:46.345Z,0
2018-06-10T02:30:54.991Z,0
2018-06-10T02:32:03.642Z,0
2018-06-10T02:33:12.286Z,0
2018-06-10T02:34:20.942Z,0
2018-06-10T02:35:29.594Z,0
2018-06-10T02:36:38.512Z,0
2018-06-10T02:37:47.160Z,0
2018-06-10T02:38:55.805Z,0
2018-06-10T02:40:04.467Z,0
2018-06-10T02:41:13.382Z,0
2018-06-10T02:42:22.311Z,0
2018-06-10T02:43:30.970Z,0
2018-06-10T02:44:39.616Z,0
2018-06-10T02:45:48.269Z,0
2018-06-10T02:46:57.183Z,0
2018-06-10T02:48:06.367Z,0
2018-06-10T02:49:15.544Z,0
2018-06-10T02:50:24.194Z,0
2018-06-10T02:51:33.109Z,0
2018-06-10T02:52:41.760Z,0
2018-06-10T02:53:50.411Z,0
2018-06-10T02:54:59.327Z,0
2018-06-10T02:56:07.977Z,0
2018-06-10T02:57:16.640Z,0
2018-06-10T02:58:25.288Z,0
2018-06-10T02:59:33.943Z,0
2018-06-10T03:00:42.582Z,4
2018-06-10T03:01:51.243Z,4
2018-06-10T03:03:00.161Z,4
2018-06-10T03:04:09.092Z,4
2018-06-10T03:05:17.732Z,0
2018-06-10T03:06:26.391Z,0
2018-06-10T03:07:35.043Z,4
2018-06-10T03:08:43.698Z,4
2018-06-10T03:09:52.336Z,4
2018-06-10T03:11:00.994Z,4
2018-06-10T03:12:09.646Z,8
2018-06-10T03:13:18.299Z,4
2018-06-10T03:14:26.967Z,8
2018-06-10T03:15:35.865Z,4
2018-06-10T03:16:44.786Z,8
2018-06-10T03:17:53.430Z,8
2018-06-10T03:19:02.085Z,12
2018-06-10T03:20:10.724Z,8
2018-06-10T03:21:19.377Z,8
2018-06-10T03:22:28.019Z,12
2018-06-10T03:23:36.680Z,12
2018-06-10T03:24:45.318Z,16
2018-06-10T03:25:53.967Z,16
2018-06-10T03:27:02.611Z,16
2018-06-10T03:28:11.266Z,16
2018-06-10T03:29:20.182Z,20
2018-06-10T03:30:28.837Z,24
2018-06-10T03:31:37.485Z,24
2018-06-10T03:32:46.129Z,24
2018-06-10T03:33:54.785Z,24
2018-06-10T03:35:03.426Z,28
2018-06-10T03:36:12.078Z,32
2018-06-10T03:37:20.714Z,28
2018-06-10T03:38:29.373Z,28
2018-06-10T03:39:38.011Z,32
2018-06-10T03:40:46.661Z,32
2018-06-10T03:41:55.301Z,32
2018-06-10T03:43:03.959Z,36
2018-06-10T03:44:12.599Z,36
2018-06-10T03:45:21.249Z,44
2018-06-10T03:46:29.886Z,44
2018-06-10T03:47:38.800Z,52
2018-06-10T03:48:47.458Z,56
2018-06-10T03:49:56.369Z,60
2018-06-10T03:51:05.025Z,68
2018-06-10T03:52:13.927Z,72
2018-06-10T03:53:22.577Z,80
2018-06-10T03:54:31.230Z,84
2018-06-10T03:55:39.862Z,88
2018-06-10T03:56:48.530Z,88
2018-06-10T03:57:57.168Z,88
2018-06-10T03:59:05.819Z,96
2018-06-10T04:00:14.458Z,104
2018-06-10T04:01:23.109Z,112
2018-06-10T04:02:31.753Z,120
2018-06-10T04:03:40.404Z,124
2018-06-10T04:04:49.303Z,128
2018-06-10T04:05:57.954Z,136
2018-06-10T04:07:06.619Z,140
2018-06-10T04:08:15.528Z,140
2018-06-10T04:09:24.180Z,148
2018-06-10T04:10:32.813Z,144
2018-06-10T04:11:41.465Z,140
2018-06-10T04:12:50.106Z,160
2018-06-10T04:13:59.027Z,172
2018-06-10T04:15:07.667Z,172
2018-06-10T04:16:16.321Z,176
2018-06-10T04:17:24.964Z,184
2018-06-10T04:18:33.620Z,188
2018-06-10T04:19:42.256Z,204
2018-06-10T04:20:50.904Z,220
2018-06-10T04:21:59.549Z,208
2018-06-10T04:23:08.208Z,208
2018-06-10T04:24:17.117Z,236
2018-06-10T04:25:25.761Z,252
2018-06-10T04:26:34.408Z,268
2018-06-10T04:27:43.320Z,288
2018-06-10T04:28:51.980Z,288
2018-06-10T04:30:00.623Z,320
2018-06-10T04:31:09.283Z,328
2018-06-10T04:32:17.915Z,340
2018-06-10T04:33:26.570Z,324
2018-06-10T04:34:35.213Z,320
2018-06-10T04:35:44.128Z,348
2018-06-10T04:36:52.766Z,392
2018-06-10T04:38:01.422Z,404
2018-06-10T04:39:10.068Z,424
2018-06-10T04:40:18.717Z,448
2018-06-10T04:41:27.354Z,460
2018-06-10T04:42:36.004Z,448
2018-06-10T04:43:44.660Z,452
2018-06-10T04:44:53.309Z,540
2018-06-10T04:46:01.959Z,576
2018-06-10T04:47:10.637Z,604
2018-06-10T04:48:19.585Z,628
2018-06-10T04:49:28.491Z,660
2018-06-10T04:50:37.145Z,652
2018-06-10T04:51:45.787Z,624
2018-06-10T04:52:54.489Z,612
2018-06-10T04:54:03.084Z,604
2018-06-10T04:55:11.737Z,576
2018-06-10T04:56:20.383Z,576
2018-06-10T04:57:29.033Z,584
2018-06-10T04:58:37.682Z,656
2018-06-10T04:59:46.331Z,772
2018-06-10T05:00:54.974Z,796
2018-06-10T05:02:03.620Z,832
2018-06-10T05:03:12.531Z,872
2018-06-10T05:04:21.178Z,896
2018-06-10T05:05:29.830Z,928
2018-06-10T05:06:38.480Z,968
2018-06-10T05:07:47.393Z,988
2018-06-10T05:08:56.036Z,1024
2018-06-10T05:10:04.688Z,1040
2018-06-10T05:11:13.333Z,1064
2018-06-10T05:12:21.983Z,1080
2018-06-10T05:13:30.626Z,1088
2018-06-10T05:14:39.277Z,1096
2018-06-10T05:15:47.924Z,1104
2018-06-10T05:16:56.574Z,1108
2018-06-10T05:18:05.218Z,1088
2018-06-10T05:19:14.131Z,1088
2018-06-10T05:20:22.779Z,1080
2018-06-10T05:21:31.429Z,1064
2018-06-10T05:22:40.079Z,1048
2018-06-10T05:23:48.723Z,1032
2018-06-10T05:24:57.368Z,1020
2018-06-10T05:26:06.289Z,996
2018-06-10T05:27:14.941Z,980
2018-06-10T05:28:23.585Z,988
2018-06-10T05:29:32.494Z,1004
2018-06-10T05:30:41.143Z,1020
2018-06-10T05:31:49.794Z,1048
2018-06-10T05:32:58.446Z,1064
2018-06-10T05:34:07.093Z,1084
2018-06-10T05:35:15.738Z,1092
2018-06-10T05:36:24.650Z,1116
2018-06-10T05:37:33.297Z,1156
2018-06-10T05:38:42.201Z,1204
2018-06-10T05:39:50.848Z,1256
2018-06-10T05:40:59.497Z,1316
2018-06-10T05:42:08.148Z,1388
2018-06-10T05:43:16.795Z,1432
2018-06-10T05:44:25.443Z,1492
2018-06-10T05:45:34.089Z,1528
2018-06-10T05:46:42.740Z,1552
2018-06-10T05:47:51.386Z,1564
2018-06-10T05:49:00.034Z,1564
2018-06-10T05:50:08.694Z,1556
2018-06-10T05:51:17.626Z,1564
2018-06-10T05:52:26.247Z,1560
2018-06-10T05:53:34.895Z,1568
2018-06-10T05:54:43.552Z,1568
2018-06-10T05:55:52.197Z,1564
2018-06-10T05:57:00.843Z,1560
2018-06-10T05:58:09.489Z,1552
2018-06-10T05:59:18.136Z,1548
2018-06-10T06:00:27.080Z,1556
2018-06-10T06:01:35.724Z,1576
2018-06-10T06:02:44.375Z,1616
2018-06-10T06:03:53.014Z,1660
2018-06-10T06:05:01.672Z,1696
2018-06-10T06:06:10.320Z,1720
2018-06-10T06:07:18.979Z,1724
2018-06-10T06:08:27.613Z,1728
2018-06-10T06:09:36.268Z,1712
2018-06-10T06:10:45.176Z,1704
2018-06-10T06:11:53.827Z,1708
2018-06-10T06:13:02.467Z,1704
2018-06-10T06:14:11.373Z,1732
2018-06-10T06:15:20.025Z,1776
2018-06-10T06:16:28.676Z,1856
2018-06-10T06:17:37.326Z,1940
2018-06-10T06:18:45.966Z,2012
2018-06-10T06:19:54.619Z,2088
2018-06-10T06:21:03.527Z,2116
2018-06-10T06:22:12.183Z,2100
2018-06-10T06:23:20.824Z,2028
2018-06-10T06:24:29.480Z,1964
2018-06-10T06:25:38.124Z,1868
2018-06-10T06:26:46.780Z,1792
2018-06-10T06:27:55.419Z,1708
2018-06-10T06:29:04.069Z,1648
2018-06-10T06:30:12.714Z,1588
2018-06-10T06:31:21.373Z,1552
2018-06-10T06:32:30.025Z,1536
2018-06-10T06:33:38.929Z,1556
2018-06-10T06:34:47.577Z,1596
2018-06-10T06:35:56.222Z,1608
2018-06-10T06:37:05.144Z,1620
2018-06-10T06:38:13.786Z,1628
2018-06-10T06:39:22.498Z,1628
2018-06-10T06:40:31.077Z,1644
2018-06-10T06:41:39.734Z,1676
2018-06-10T06:42:48.377Z,1728
2018-06-10T06:43:57.289Z,1800
2018-06-10T06:45:06.191Z,1908
2018-06-10T06:46:14.850Z,2000
2018-06-10T06:47:23.495Z,2112
2018-06-10T06:48:32.457Z,2212
2018-06-10T06:49:41.103Z,2312
2018-06-10T06:50:49.756Z,2412
2018-06-10T06:51:58.405Z,2492
2018-06-10T06:53:07.053Z,2572
2018-06-10T06:54:15.966Z,2748
2018-06-10T06:55:24.610Z,2900
2018-06-10T06:56:33.261Z,3052
2018-06-10T06:57:41.911Z,3120
2018-06-10T06:58:50.564Z,3116
2018-06-10T06:59:59.206Z,3200
2018-06-10T07:01:07.854Z,2968
2018-06-10T07:02:16.504Z,3508
2018-06-10T07:03:25.159Z,3628
2018-06-10T07:04:33.803Z,3796
2018-06-10T07:05:42.455Z,4124
2018-06-10T07:06:51.102Z,4196
2018-06-10T07:07:59.753Z,4288
2018-06-10T07:09:08.400Z,4320
2018-06-10T07:10:17.049Z,4404
2018-06-10T07:11:25.699Z,4548
2018-06-10T07:12:34.342Z,4696
2018-06-10T07:13:42.995Z,4840
2018-06-10T07:14:51.643Z,4996
2018-06-10T07:16:00.293Z,5080
2018-06-10T07:17:08.937Z,5120
2018-06-10T07:18:17.861Z,5248
2018-06-10T07:19:26.511Z,5224
2018-06-10T07:20:35.161Z,5132
2018-06-10T07:21:43.810Z,5236
2018-06-10T07:22:52.457Z,5028
2018-06-10T07:24:01.374Z,4448
2018-06-10T07:25:10.025Z,3948
2018-06-10T07:26:18.673Z,4640
2018-06-10T07:27:27.322Z,5120
2018-06-10T07:28:35.971Z,5472
2018-06-10T07:29:44.619Z,5172
2018-06-10T07:30:53.274Z,4928
2018-06-10T07:32:01.916Z,5024
2018-06-10T07:33:10.563Z,5360
2018-06-10T07:34:19.214Z,5656
2018-06-10T07:35:27.871Z,5640
2018-06-10T07:36:36.518Z,5564
2018-06-10T07:37:45.167Z,5368
2018-06-10T07:38:53.818Z,5620
2018-06-10T07:40:02.471Z,5984
2018-06-10T07:41:11.642Z,5928
2018-06-10T07:42:20.294Z,5920
2018-06-10T07:43:28.941Z,5968
2018-06-10T07:44:37.602Z,5924
2018-06-10T07:45:46.530Z,5740
2018-06-10T07:46:55.179Z,5360
2018-06-10T07:48:03.830Z,5260
2018-06-10T07:49:12.756Z,5076
2018-06-10T07:50:21.401Z,5012
2018-06-10T07:51:30.054Z,5312
2018-06-10T07:52:38.704Z,6604
2018-06-10T07:53:47.358Z,7016
2018-06-10T07:54:56.265Z,6956
2018-06-10T07:56:04.919Z,6564
2018-06-10T07:57:13.564Z,6316
2018-06-10T07:58:22.219Z,5944
2018-06-10T07:59:30.873Z,5956
2018-06-10T08:00:39.517Z,6752
2018-06-10T08:01:48.429Z,7180
2018-06-10T08:02:57.086Z,7440
2018-06-10T08:04:05.730Z,7252
2018-06-10T08:05:14.381Z,7408
2018-06-10T08:06:23.030Z,7652
2018-06-10T08:07:31.681Z,7884
2018-06-10T08:08:40.335Z,7744
2018-06-10T08:09:48.985Z,6928
2018-06-10T08:10:57.640Z,6320
2018-06-10T08:12:06.286Z,6044
2018-06-10T08:13:14.948Z,5512
2018-06-10T08:14:23.591Z,5088
2018-06-10T08:15:32.243Z,4676
2018-06-10T08:16:40.888Z,4268
2018-06-10T08:17:49.543Z,4416
2018-06-10T08:18:58.191Z,4264
2018-06-10T08:20:06.845Z,4704
2018-06-10T08:21:15.490Z,5396
2018-06-10T08:22:24.144Z,5748
2018-06-10T08:23:32.802Z,5740
2018-06-10T08:24:41.454Z,5344
2018-06-10T08:25:50.369Z,5504
2018-06-10T08:26:59.016Z,6240
2018-06-10T08:28:08.200Z,6432
2018-06-10T08:29:16.855Z,5864
2018-06-10T08:30:25.778Z,5816
2018-06-10T08:31:34.423Z,6064
2018-06-10T08:32:43.340Z,5852
2018-06-10T08:33:51.991Z,5948
2018-06-10T08:35:00.645Z,5860
2018-06-10T08:36:09.293Z,5312
2018-06-10T08:37:17.977Z,5524
2018-06-10T08:38:26.594Z,5592
2018-06-10T08:39:35.249Z,5584
2018-06-10T08:40:43.896Z,6032
2018-06-10T08:41:52.550Z,6400
2018-06-10T08:43:01.199Z,6468
2018-06-10T08:44:09.943Z,6368
2018-06-10T08:45:18.503Z,6264
2018-06-10T08:46:27.151Z,6236
2018-06-10T08:47:35.805Z,6164
2018-06-10T08:48:44.456Z,6012
2018-06-10T08:49:53.118Z,5872
2018-06-10T08:51:02.032Z,5656
2018-06-10T08:52:10.963Z,5512
2018-06-10T08:53:19.605Z,5420
2018-06-10T08:54:28.267Z,5340
2018-06-10T08:55:36.917Z,5008
2018-06-10T08:56:45.571Z,4908
2018-06-10T08:57:54.212Z,4848
2018-06-10T08:59:02.864Z,4680
2018-06-10T09:00:11.525Z,4796
2018-06-10T09:01:20.177Z,5120
2018-06-10T09:02:28.825Z,5340
2018-06-10T09:03:37.469Z,5488
2018-06-10T09:04:46.125Z,5208
2018-06-10T09:05:54.776Z,4952
2018-06-10T09:07:03.437Z,4620
2018-06-10T09:08:12.083Z,4644
2018-06-10T09:09:20.741Z,4616
2018-06-10T09:10:29.388Z,4596
2018-06-10T09:11:38.045Z,4932
2018-06-10T09:12:46.691Z,5184
2018-06-10T09:13:55.605Z,4792
2018-06-10T09:15:04.255Z,4644
2018-06-10T09:16:13.181Z,4776
2018-06-10T09:17:21.831Z,4848
2018-06-10T09:18:30.739Z,5116
2018-06-10T09:19:39.390Z,5248
2018-06-10T09:20:48.044Z,5752
2018-06-10T09:21:56.703Z,5960
2018-06-10T09:23:05.348Z,6016
2018-06-10T09:24:14.003Z,6316
2018-06-10T09:25:22.645Z,6308
2018-06-10T09:26:31.306Z,6668
2018-06-10T09:27:40.211Z,6964
2018-06-10T09:28:49.149Z,7028
2018-06-10T09:29:57.781Z,7388
2018-06-10T09:31:06.715Z,8024
2018-06-10T09:32:15.364Z,8272
2018-06-10T09:33:24.018Z,8620
2018-06-10T09:34:32.661Z,7828
2018-06-10T09:35:41.317Z,7316
2018-06-10T09:36:49.977Z,6592
2018-06-10T09:37:58.630Z,4012
2018-06-10T09:39:07.548Z,3192
2018-06-10T09:40:16.458Z,3972
2018-06-10T09:41:25.115Z,4724
2018-06-10T09:42:33.767Z,4936
2018-06-10T09:43:42.687Z,5028
2018-06-10T09:44:51.333Z,5444
2018-06-10T09:46:00.247Z,5948
2018-06-10T09:47:08.900Z,6148
2018-06-10T09:48:17.561Z,5596
2018-06-10T09:49:26.209Z,5688
2018-06-10T09:50:35.128Z,6024
2018-06-10T09:51:43.782Z,5328
2018-06-10T09:52:52.435Z,4724
2018-06-10T09:54:01.088Z,4340
2018-06-10T09:55:10.090Z,4464
2018-06-10T09:56:19.016Z,4760
2018-06-10T09:57:27.931Z,3940
2018-06-10T09:58:36.584Z,3572
2018-06-10T09:59:45.239Z,3904
2018-06-10T10:00:53.889Z,5036
2018-06-10T10:02:02.539Z,5308
2018-06-10T10:03:11.196Z,4840
2018-06-10T10:04:19.849Z,4212
2018-06-10T10:05:28.764Z,3848
2018-06-10T10:06:37.411Z,3872
2018-06-10T10:07:46.067Z,3720
2018-06-10T10:08:54.784Z,3940
2018-06-10T10:10:03.366Z,4092
2018-06-10T10:11:12.014Z,4024
2018-06-10T10:12:20.667Z,4104
2018-06-10T10:13:29.325Z,4336
2018-06-10T10:14:38.354Z,4724
2018-06-10T10:15:46.895Z,4916
2018-06-10T10:16:55.552Z,5092
2018-06-10T10:18:04.208Z,5060
2018-06-10T10:19:12.856Z,4960
2018-06-10T10:20:21.515Z,4672
2018-06-10T10:21:30.165Z,4624
2018-06-10T10:22:38.815Z,5232
2018-06-10T10:23:47.465Z,5396
2018-06-10T10:24:56.120Z,5736
2018-06-10T10:26:04.765Z,6216
2018-06-10T10:27:13.424Z,6408
2018-06-10T10:28:22.340Z,6496
2018-06-10T10:29:30.996Z,6448
2018-06-10T10:30:39.645Z,6300
2018-06-10T10:31:48.877Z,6296
2018-06-10T10:32:57.474Z,6536
2018-06-10T10:34:06.385Z,6656
2018-06-10T10:35:15.040Z,6752
2018-06-10T10:36:23.698Z,6936
2018-06-10T10:37:32.345Z,7040
2018-06-10T10:38:40.993Z,6920
2018-06-10T10:39:49.655Z,6648
2018-06-10T10:40:58.303Z,6320
2018-06-10T10:42:06.956Z,6408
2018-06-10T10:43:15.600Z,6668
2018-06-10T10:44:24.262Z,7000
2018-06-10T10:45:33.171Z,7344
2018-06-10T10:46:41.824Z,7676
2018-06-10T10:47:50.467Z,7652
2018-06-10T10:48:59.132Z,7712
2018-06-10T10:50:07.780Z,7620
2018-06-10T10:51:16.433Z,7464
2018-06-10T10:52:25.090Z,7396
2018-06-10T10:53:33.732Z,7324
2018-06-10T10:54:42.390Z,7320
2018-06-10T10:55:51.035Z,7300
2018-06-10T10:56:59.696Z,7384
2018-06-10T10:58:08.351Z,7524
2018-06-10T10:59:17.010Z,7060
2018-06-10T11:00:25.657Z,6624
2018-06-10T11:01:34.318Z,6052
2018-06-10T11:02:42.964Z,5340
2018-06-10T11:03:51.620Z,5256
2018-06-10T11:05:00.276Z,5472
2018-06-10T11:06:08.935Z,5440
2018-06-10T11:07:17.594Z,5432
2018-06-10T11:08:26.505Z,5580
2018-06-10T11:09:35.153Z,5832
2018-06-10T11:10:44.067Z,5892
2018-06-10T11:11:52.732Z,5856
2018-06-10T11:13:01.379Z,5880
2018-06-10T11:14:10.043Z,5976
2018-06-10T11:15:18.684Z,5920
2018-06-10T11:16:27.342Z,5736
2018-06-10T11:17:36.262Z,5596
2018-06-10T11:18:45.176Z,5640
2018-06-10T11:19:53.819Z,5580
2018-06-10T11:21:02.480Z,5484
2018-06-10T11:22:11.133Z,5476
2018-06-10T11:23:19.789Z,5352
2018-06-10T11:24:28.697Z,5112
2018-06-10T11:25:37.351Z,5168
2018-06-10T11:26:46.008Z,5440
2018-06-10T11:27:54.662Z,5616
2018-06-10T11:29:03.581Z,5788
2018-06-10T11:30:12.224Z,6024
2018-06-10T11:31:20.879Z,6108
2018-06-10T11:32:29.526Z,5988
2018-06-10T11:33:38.189Z,5940
2018-06-10T11:34:46.838Z,6060
2018-06-10T11:35:55.494Z,6232
2018-06-10T11:37:04.139Z,6300
2018-06-10T11:38:13.340Z,6272
2018-06-10T11:39:22.244Z,6280
2018-06-10T11:40:30.899Z,6476
2018-06-10T11:41:39.557Z,6836
2018-06-10T11:42:48.202Z,7116
2018-06-10T11:43:57.118Z,7432
2018-06-10T11:45:06.041Z,7808
2018-06-10T11:46:14.692Z,8060
2018-06-10T11:47:23.345Z,8052
2018-06-10T11:48:31.987Z,7904
2018-06-10T11:49:40.645Z,7516
2018-06-10T11:50:49.301Z,7112
2018-06-10T11:51:58.027Z,6000
2018-06-10T11:53:06.612Z,5560
2018-06-10T11:54:15.269Z,5068
2018-06-10T11:55:23.921Z,4516
2018-06-10T11:56:32.583Z,4504
2018-06-10T11:57:41.491Z,5132
2018-06-10T11:58:50.145Z,5824
2018-06-10T11:59:59.062Z,6344
2018-06-10T12:01:07.729Z,6584
2018-06-10T12:02:16.378Z,6516
2018-06-10T12:03:25.031Z,6524
2018-06-10T12:04:33.678Z,6628
2018-06-10T12:05:42.330Z,7008
2018-06-10T12:06:50.993Z,7120
2018-06-10T12:07:59.641Z,6876
2018-06-10T12:09:08.301Z,6336
2018-06-10T12:10:17.202Z,6024
2018-06-10T12:11:25.865Z,6008
2018-06-10T12:12:34.520Z,6004
2018-06-10T12:13:43.240Z,5880
2018-06-10T12:14:51.819Z,5752
2018-06-10T12:16:00.483Z,5688
2018-06-10T12:17:09.135Z,5416
2018-06-10T12:18:18.056Z,5460
2018-06-10T12:19:26.962Z,5808
2018-06-10T12:20:35.878Z,6600
2018-06-10T12:21:44.536Z,7400
2018-06-10T12:22:53.380Z,7776
2018-06-10T12:24:01.847Z,7776
2018-06-10T12:25:10.492Z,7708
2018-06-10T12:26:19.144Z,8240
2018-06-10T12:27:27.792Z,7536
2018-06-10T12:28:36.459Z,7280
2018-06-10T12:29:45.102Z,7016
2018-06-10T12:30:53.761Z,6368
2018-06-10T12:32:02.676Z,6364
2018-06-10T12:33:11.601Z,6700
2018-06-10T12:34:20.245Z,6924
2018-06-10T12:35:28.904Z,6800
2018-06-10T12:36:37.551Z,6316
2018-06-10T12:37:46.218Z,5672
2018-06-10T12:38:54.869Z,5532
2018-06-10T12:40:03.520Z,5864
2018-06-10T12:41:12.179Z,6336
2018-06-10T12:42:21.101Z,6436
2018-06-10T12:43:29.759Z,5668
2018-06-10T12:44:38.412Z,5556
2018-06-10T12:45:47.066Z,6032
2018-06-10T12:46:55.715Z,6248
2018-06-10T12:48:04.371Z,6712
2018-06-10T12:49:13.147Z,6884
2018-06-10T12:50:21.679Z,6944
2018-06-10T12:51:30.590Z,6792
2018-06-10T12:52:39.246Z,6796
2018-06-10T12:53:47.899Z,6728
2018-06-10T12:54:56.555Z,6628
2018-06-10T12:56:05.204Z,6484
2018-06-10T12:57:13.861Z,6396
2018-06-10T12:58:22.518Z,6428
2018-06-10T12:59:31.169Z,6372
2018-06-10T13:00:39.823Z,6072
2018-06-10T13:01:48.478Z,5500
2018-06-10T13:02:57.668Z,4844
2018-06-10T13:04:06.322Z,4224
2018-06-10T13:05:14.984Z,3968
2018-06-10T13:06:23.630Z,4732
2018-06-10T13:07:32.283Z,4744
2018-06-10T13:08:40.939Z,4772
2018-06-10T13:09:49.595Z,4844
2018-06-10T13:10:58.261Z,5076
2018-06-10T13:12:07.188Z,5604
2018-06-10T13:13:15.839Z,6452
2018-06-10T13:14:24.495Z,7236
2018-06-10T13:15:33.150Z,7552
2018-06-10T13:16:41.804Z,8220
2018-06-10T13:17:50.455Z,8224
2018-06-10T13:18:59.105Z,7664
2018-06-10T13:20:07.762Z,6508
2018-06-10T13:21:16.416Z,6180
2018-06-10T13:22:25.332Z,6028
2018-06-10T13:23:34.247Z,5748
2018-06-10T13:24:42.904Z,5664
2018-06-10T13:25:51.552Z,5852
2018-06-10T13:27:00.205Z,5972
2018-06-10T13:28:08.853Z,5764
2018-06-10T13:29:17.512Z,5560
2018-06-10T13:30:26.163Z,5468
2018-06-10T13:31:34.824Z,5504
2018-06-10T13:32:43.471Z,5508
2018-06-10T13:33:52.154Z,5520
2018-06-10T13:35:00.784Z,5712
2018-06-10T13:36:09.712Z,5984
2018-06-10T13:37:18.371Z,6268
2018-06-10T13:38:27.019Z,6344
2018-06-10T13:39:35.675Z,6568
2018-06-10T13:40:44.327Z,6984
2018-06-10T13:41:52.986Z,7272
2018-06-10T13:43:01.638Z,7400
2018-06-10T13:44:10.555Z,7344
2018-06-10T13:45:19.216Z,7212
2018-06-10T13:46:27.870Z,7036
2018-06-10T13:47:36.788Z,6900
2018-06-10T13:48:45.443Z,6912
2018-06-10T13:49:54.361Z,6716
2018-06-10T13:51:03.298Z,6636
2018-06-10T13:52:12.223Z,6832
2018-06-10T13:53:20.881Z,6940
2018-06-10T13:54:29.537Z,6900
2018-06-10T13:55:38.451Z,6700
2018-06-10T13:56:47.372Z,6608
2018-06-10T13:57:56.025Z,5960
2018-06-10T13:59:04.681Z,5720
2018-06-10T14:00:13.595Z,5504
2018-06-10T14:01:22.251Z,5000
2018-06-10T14:02:31.181Z,4340
2018-06-10T14:03:39.834Z,4368
2018-06-10T14:04:48.482Z,5020
2018-06-10T14:05:57.194Z,4864
2018-06-10T14:07:05.788Z,4836
2018-06-10T14:08:14.443Z,4480
2018-06-10T14:09:23.095Z,4456
2018-06-10T14:10:32.018Z,4372
2018-06-10T14:11:40.672Z,4432
2018-06-10T14:12:49.327Z,4404
2018-06-10T14:13:57.986Z,4304
2018-06-10T14:15:06.652Z,4356
2018-06-10T14:16:15.288Z,4496
2018-06-10T14:17:24.206Z,4544
2018-06-10T14:18:32.866Z,4676
2018-06-10T14:19:41.781Z,4716
2018-06-10T14:20:50.701Z,4844
2018-06-10T14:21:59.357Z,4756
2018-06-10T14:23:08.013Z,4576
2018-06-10T14:24:16.924Z,4300
2018-06-10T14:25:25.578Z,4548
2018-06-10T14:26:34.495Z,5412
2018-06-10T14:27:43.430Z,6036
2018-06-10T14:28:52.080Z,5916
2018-06-10T14:30:00.735Z,4940
2018-06-10T14:31:09.659Z,5576
2018-06-10T14:32:18.318Z,4524
2018-06-10T14:33:26.975Z,5208
2018-06-10T14:34:35.887Z,5316
2018-06-10T14:35:44.542Z,5388
2018-06-10T14:36:53.188Z,5328
2018-06-10T14:38:01.851Z,4676
2018-06-10T14:39:10.503Z,4464
2018-06-10T14:40:19.423Z,4816
2018-06-10T14:41:28.066Z,4736
2018-06-10T14:42:36.727Z,4228
2018-06-10T14:43:45.378Z,4220
2018-06-10T14:44:54.033Z,4300
2018-06-10T14:46:02.679Z,4084
2018-06-10T14:47:11.334Z,3976
2018-06-10T14:48:19.993Z,4152
2018-06-10T14:49:28.652Z,3952
2018-06-10T14:50:37.305Z,4320
2018-06-10T14:51:45.951Z,4840
2018-06-10T14:52:54.613Z,4860
2018-06-10T14:54:03.258Z,4580
2018-06-10T14:55:11.919Z,3988
2018-06-10T14:56:20.579Z,3632
2018-06-10T14:57:29.227Z,3484
2018-06-10T14:58:37.885Z,3624
2018-06-10T14:59:46.552Z,3588
2018-06-10T15:00:55.195Z,2868
2018-06-10T15:02:04.126Z,3112
2018-06-10T15:03:12.776Z,4152
2018-06-10T15:04:21.440Z,4208
2018-06-10T15:05:30.094Z,3744
2018-06-10T15:06:39.011Z,4548
2018-06-10T15:07:47.938Z,4548
2018-06-10T15:08:56.590Z,4544
2018-06-10T15:10:05.255Z,4624
2018-06-10T15:11:14.165Z,4624
2018-06-10T15:12:22.823Z,4788
2018-06-10T15:13:31.469Z,4700
2018-06-10T15:14:40.406Z,4136
2018-06-10T15:15:49.051Z,3744
2018-06-10T15:16:57.735Z,2904
2018-06-10T15:18:06.353Z,2908
2018-06-10T15:19:15.016Z,3228
2018-06-10T15:20:23.672Z,2796
2018-06-10T15:21:32.328Z,2364
2018-06-10T15:22:40.970Z,2456
2018-06-10T15:23:49.624Z,2540
2018-06-10T15:24:58.281Z,2256
2018-06-10T15:26:06.937Z,2276
2018-06-10T15:27:15.595Z,2396
2018-06-10T15:28:24.238Z,2708
2018-06-10T15:29:32.893Z,2968
2018-06-10T15:30:41.551Z,3148
2018-06-10T15:31:50.213Z,3136
2018-06-10T15:32:59.130Z,3220
2018-06-10T15:34:07.787Z,3892
2018-06-10T15:35:16.434Z,3976
2018-06-10T15:36:25.090Z,3708
2018-06-10T15:37:33.746Z,4096
2018-06-10T15:38:42.660Z,4264
2018-06-10T15:39:51.324Z,4648